sensor_id;sensor_type;location;lat;lon;timestamp;temperature;humidity
13684;DHT22;6914;53.552;9.908;2022-09-01T00:01:10;14.90;99.90
13684;DHT22;6914;53.552;9.908;2022-09-01T00:03:40;14.80;99.90
13684;DHT22;6914;53.552;9.908;2022-09-01T00:06:07;14.80;99.90
13684;DHT22;6914;53.552;9.908;2022-09-01T00:08:36;14.80;99.90
13684;DHT22;6914;53.552;9.908;2022-09-01T00:11:03;14.80;99.90
13684;DHT22;6914;53.552;9.908;2022-09-01T00:13:32;14.70;99.90
13684;DHT22;6914;53.552;9.908;2022-09-01T00:15:59;14.70;99.90
13684;DHT22;6914;53.552;9.908;2022-09-01T00:18:29;14.70;99.90
13684;DHT22;6914;53.552;9.908;2022-09-01T00:20:57;14.60;99.90
13684;DHT22;6914;53.552;9.908;2022-09-01T00:23:25;14.60;99.90
13684;DHT22;6914;53.552;9.908;2022-09-01T00:25:52;14.50;99.90
13684;DHT22;6914;53.552;9.908;2022-09-01T00:28:19;14.50;99.90
13684;DHT22;6914;53.552;9.908;2022-09-01T00:30:48;14.60;99.90
13684;DHT22;6914;53.552;9.908;2022-09-01T00:33:15;14.50;99.90
13684;DHT22;6914;53.552;9.908;2022-09-01T00:35:42;14.50;99.90
13684;DHT22;6914;53.552;9.908;2022-09-01T00:38:09;14.50;99.90
13684;DHT22;6914;53.552;9.908;2022-09-01T00:40:37;14.40;99.90
13684;DHT22;6914;53.552;9.908;2022-09-01T00:43:11;14.40;99.90
13684;DHT22;6914;53.552;9.908;2022-09-01T00:45:39;14.40;99.90
13684;DHT22;6914;53.552;9.908;2022-09-01T00:48:08;14.30;99.90
13684;DHT22;6914;53.552;9.908;2022-09-01T00:50:36;14.30;99.90
13684;DHT22;6914;53.552;9.908;2022-09-01T00:53:05;14.20;99.90
13684;DHT22;6914;53.552;9.908;2022-09-01T00:55:34;14.20;99.90
13684;DHT22;6914;53.552;9.908;2022-09-01T00:58:04;14.20;99.90
13684;DHT22;6914;53.552;9.908;2022-09-01T01:00:34;14.10;99.90
13684;DHT22;6914;53.552;9.908;2022-09-01T01:03:08;14.10;99.90
13684;DHT22;6914;53.552;9.908;2022-09-01T01:05:37;14.20;99.90
13684;DHT22;6914;53.552;9.908;2022-09-01T01:08:07;14.10;99.90
13684;DHT22;6914;53.552;9.908;2022-09-01T01:10:39;14.10;99.90
13684;DHT22;6914;53.552;9.908;2022-09-01T01:13:09;14.10;99.90
13684;DHT22;6914;53.552;9.908;2022-09-01T01:15:37;14.10;99.90
13684;DHT22;6914;53.552;9.908;2022-09-01T01:18:10;14.00;99.90
13684;DHT22;6914;53.552;9.908;2022-09-01T01:20:37;14.00;99.90
13684;DHT22;6914;53.552;9.908;2022-09-01T01:23:27;14.00;99.90
13684;DHT22;6914;53.552;9.908;2022-09-01T01:25:59;14.00;99.90
13684;DHT22;6914;53.552;9.908;2022-09-01T01:28:28;14.00;99.90
13684;DHT22;6914;53.552;9.908;2022-09-01T01:30:58;13.90;99.90
13684;DHT22;6914;53.552;9.908;2022-09-01T01:33:32;13.90;99.90
13684;DHT22;6914;53.552;9.908;2022-09-01T01:36:06;13.90;99.90
13684;DHT22;6914;53.552;9.908;2022-09-01T01:38:35;13.90;99.90
13684;DHT22;6914;53.552;9.908;2022-09-01T01:41:04;13.80;99.90
13684;DHT22;6914;53.552;9.908;2022-09-01T01:43:31;13.80;99.90
13684;DHT22;6914;53.552;9.908;2022-09-01T01:45:58;13.80;99.90
13684;DHT22;6914;53.552;9.908;2022-09-01T01:48:28;13.80;99.90
13684;DHT22;6914;53.552;9.908;2022-09-01T01:51:00;13.70;99.90
13684;DHT22;6914;53.552;9.908;2022-09-01T01:53:27;13.80;99.90
13684;DHT22;6914;53.552;9.908;2022-09-01T01:55:55;13.80;99.90
13684;DHT22;6914;53.552;9.908;2022-09-01T01:58:24;13.70;99.90
13684;DHT22;6914;53.552;9.908;2022-09-01T02:00:54;13.70;99.90
13684;DHT22;6914;53.552;9.908;2022-09-01T02:03:23;13.60;99.90
13684;DHT22;6914;53.552;9.908;2022-09-01T02:05:52;13.60;99.90
13684;DHT22;6914;53.552;9.908;2022-09-01T02:08:21;13.60;99.90
13684;DHT22;6914;53.552;9.908;2022-09-01T02:10:52;13.60;99.90
13684;DHT22;6914;53.552;9.908;2022-09-01T02:13:21;13.50;99.90
13684;DHT22;6914;53.552;9.908;2022-09-01T02:15:53;13.50;99.90
13684;DHT22;6914;53.552;9.908;2022-09-01T02:18:23;13.50;99.90
13684;DHT22;6914;53.552;9.908;2022-09-01T02:20:52;13.50;99.90
13684;DHT22;6914;53.552;9.908;2022-09-01T02:23:22;13.40;99.90
13684;DHT22;6914;53.552;9.908;2022-09-01T02:25:51;13.40;99.90
13684;DHT22;6914;53.552;9.908;2022-09-01T02:28:19;13.30;99.90
13684;DHT22;6914;53.552;9.908;2022-09-01T02:30:49;13.30;99.90
13684;DHT22;6914;53.552;9.908;2022-09-01T02:33:19;13.30;99.90
13684;DHT22;6914;53.552;9.908;2022-09-01T02:35:48;13.10;99.90
13684;DHT22;6914;53.552;9.908;2022-09-01T02:38:15;13.10;99.90
13684;DHT22;6914;53.552;9.908;2022-09-01T02:40:45;13.10;99.90
13684;DHT22;6914;53.552;9.908;2022-09-01T02:43:14;13.10;99.90
13684;DHT22;6914;53.552;9.908;2022-09-01T02:45:44;13.10;99.90
13684;DHT22;6914;53.552;9.908;2022-09-01T02:48:12;13.00;99.90
13684;DHT22;6914;53.552;9.908;2022-09-01T02:50:41;12.90;99.90
13684;DHT22;6914;53.552;9.908;2022-09-01T02:53:08;12.90;99.90
13684;DHT22;6914;53.552;9.908;2022-09-01T02:58:58;12.90;99.90
13684;DHT22;6914;53.552;9.908;2022-09-01T03:01:30;12.90;99.90
13684;DHT22;6914;53.552;9.908;2022-09-01T03:04:02;12.80;99.90
13684;DHT22;6914;53.552;9.908;2022-09-01T03:06:31;12.80;99.90
13684;DHT22;6914;53.552;9.908;2022-09-01T03:09:03;12.80;99.90
13684;DHT22;6914;53.552;9.908;2022-09-01T03:11:33;12.80;99.90
13684;DHT22;6914;53.552;9.908;2022-09-01T03:14:00;12.70;99.90
13684;DHT22;6914;53.552;9.908;2022-09-01T03:16:28;12.70;99.90
13684;DHT22;6914;53.552;9.908;2022-09-01T03:18:56;12.70;99.90
13684;DHT22;6914;53.552;9.908;2022-09-01T03:21:23;12.60;99.90
13684;DHT22;6914;53.552;9.908;2022-09-01T03:23:52;12.60;99.90
13684;DHT22;6914;53.552;9.908;2022-09-01T03:26:21;12.60;99.90
13684;DHT22;6914;53.552;9.908;2022-09-01T03:28:49;12.60;99.90
13684;DHT22;6914;53.552;9.908;2022-09-01T03:31:17;12.60;99.90
13684;DHT22;6914;53.552;9.908;2022-09-01T03:33:44;12.60;99.90
13684;DHT22;6914;53.552;9.908;2022-09-01T03:36:11;12.60;99.90
13684;DHT22;6914;53.552;9.908;2022-09-01T03:38:44;12.50;99.90
13684;DHT22;6914;53.552;9.908;2022-09-01T03:41:15;12.50;99.90
13684;DHT22;6914;53.552;9.908;2022-09-01T03:43:43;12.50;99.90
13684;DHT22;6914;53.552;9.908;2022-09-01T03:46:12;12.50;99.90
13684;DHT22;6914;53.552;9.908;2022-09-01T03:48:45;12.50;99.90
13684;DHT22;6914;53.552;9.908;2022-09-01T03:51:13;12.50;99.90
13684;DHT22;6914;53.552;9.908;2022-09-01T03:53:40;12.40;99.90
13684;DHT22;6914;53.552;9.908;2022-09-01T03:56:08;12.40;99.90
13684;DHT22;6914;53.552;9.908;2022-09-01T03:58:37;12.40;99.90
13684;DHT22;6914;53.552;9.908;2022-09-01T04:01:07;12.40;99.90
13684;DHT22;6914;53.552;9.908;2022-09-01T04:03:37;12.40;99.90
13684;DHT22;6914;53.552;9.908;2022-09-01T04:06:07;12.40;99.90
13684;DHT22;6914;53.552;9.908;2022-09-01T04:08:35;12.30;99.90
13684;DHT22;6914;53.552;9.908;2022-09-01T04:11:09;12.30;99.90
13684;DHT22;6914;53.552;9.908;2022-09-01T04:13:40;12.30;99.90
13684;DHT22;6914;53.552;9.908;2022-09-01T04:16:17;12.30;99.90
13684;DHT22;6914;53.552;9.908;2022-09-01T04:18:58;12.30;99.90
13684;DHT22;6914;53.552;9.908;2022-09-01T04:21:25;12.30;99.90
13684;DHT22;6914;53.552;9.908;2022-09-01T04:23:55;12.30;99.90
13684;DHT22;6914;53.552;9.908;2022-09-01T04:26:24;12.40;99.90
13684;DHT22;6914;53.552;9.908;2022-09-01T04:28:57;12.30;99.90
13684;DHT22;6914;53.552;9.908;2022-09-01T04:31:24;12.30;99.90
13684;DHT22;6914;53.552;9.908;2022-09-01T04:33:52;12.30;99.90
13684;DHT22;6914;53.552;9.908;2022-09-01T04:36:22;12.30;99.90
13684;DHT22;6914;53.552;9.908;2022-09-01T04:38:51;12.30;99.90
13684;DHT22;6914;53.552;9.908;2022-09-01T04:41:20;12.30;99.90
13684;DHT22;6914;53.552;9.908;2022-09-01T04:43:48;12.30;99.90
13684;DHT22;6914;53.552;9.908;2022-09-01T04:46:18;12.30;99.90
13684;DHT22;6914;53.552;9.908;2022-09-01T04:48:46;12.30;99.90
13684;DHT22;6914;53.552;9.908;2022-09-01T04:51:13;12.30;99.90
13684;DHT22;6914;53.552;9.908;2022-09-01T04:53:42;12.30;99.90
13684;DHT22;6914;53.552;9.908;2022-09-01T04:56:14;12.30;99.90
13684;DHT22;6914;53.552;9.908;2022-09-01T04:58:44;12.30;99.90
13684;DHT22;6914;53.552;9.908;2022-09-01T05:01:13;12.30;99.90
13684;DHT22;6914;53.552;9.908;2022-09-01T05:03:42;12.30;99.90
13684;DHT22;6914;53.552;9.908;2022-09-01T05:06:12;12.30;99.90
13684;DHT22;6914;53.552;9.908;2022-09-01T05:08:40;12.30;99.90
13684;DHT22;6914;53.552;9.908;2022-09-01T05:11:08;12.30;99.90
13684;DHT22;6914;53.552;9.908;2022-09-01T05:16:58;12.40;99.90
13684;DHT22;6914;53.552;9.908;2022-09-01T05:19:27;12.40;99.90
13684;DHT22;6914;53.552;9.908;2022-09-01T05:21:55;12.50;99.90
13684;DHT22;6914;53.552;9.908;2022-09-01T05:24:24;12.50;99.90
13684;DHT22;6914;53.552;9.908;2022-09-01T05:26:54;12.60;99.90
13684;DHT22;6914;53.552;9.908;2022-09-01T05:29:22;12.60;99.90
13684;DHT22;6914;53.552;9.908;2022-09-01T05:31:52;12.70;99.90
13684;DHT22;6914;53.552;9.908;2022-09-01T05:34:21;12.80;99.90
13684;DHT22;6914;53.552;9.908;2022-09-01T05:36:53;12.90;99.90
13684;DHT22;6914;53.552;9.908;2022-09-01T05:42:44;13.00;99.90
13684;DHT22;6914;53.552;9.908;2022-09-01T05:45:13;13.10;99.90
13684;DHT22;6914;53.552;9.908;2022-09-01T05:47:45;13.20;99.90
13684;DHT22;6914;53.552;9.908;2022-09-01T05:50:13;13.30;99.90
13684;DHT22;6914;53.552;9.908;2022-09-01T05:52:42;13.40;99.90
13684;DHT22;6914;53.552;9.908;2022-09-01T05:55:13;13.50;99.90
13684;DHT22;6914;53.552;9.908;2022-09-01T06:07:48;13.70;99.90
13684;DHT22;6914;53.552;9.908;2022-09-01T06:14:11;13.80;99.90
13684;DHT22;6914;53.552;9.908;2022-09-01T06:16:40;13.90;99.90
13684;DHT22;6914;53.552;9.908;2022-09-01T06:19:08;14.00;99.90
13684;DHT22;6914;53.552;9.908;2022-09-01T06:21:38;14.10;99.90
13684;DHT22;6914;53.552;9.908;2022-09-01T06:24:07;14.30;99.90
13684;DHT22;6914;53.552;9.908;2022-09-01T06:26:36;14.40;99.90
13684;DHT22;6914;53.552;9.908;2022-09-01T06:29:06;14.40;99.90
13684;DHT22;6914;53.552;9.908;2022-09-01T06:45:41;15.20;99.90
13684;DHT22;6914;53.552;9.908;2022-09-01T06:51:30;15.40;99.90
13684;DHT22;6914;53.552;9.908;2022-09-01T07:00:44;16.60;99.90
13684;DHT22;6914;53.552;9.908;2022-09-01T07:03:14;16.50;99.90
13684;DHT22;6914;53.552;9.908;2022-09-01T07:05:44;16.40;99.90
13684;DHT22;6914;53.552;9.908;2022-09-01T07:08:13;16.40;99.90
13684;DHT22;6914;53.552;9.908;2022-09-01T08:02:58;17.30;99.90
13684;DHT22;6914;53.552;9.908;2022-09-01T08:05:25;17.40;99.90
13684;DHT22;6914;53.552;9.908;2022-09-01T08:07:53;17.50;99.90
13684;DHT22;6914;53.552;9.908;2022-09-01T08:10:21;17.50;99.90
13684;DHT22;6914;53.552;9.908;2022-09-01T08:12:48;17.60;99.90
13684;DHT22;6914;53.552;9.908;2022-09-01T08:15:16;17.80;99.90
13684;DHT22;6914;53.552;9.908;2022-09-01T08:17:43;17.80;99.90
13684;DHT22;6914;53.552;9.908;2022-09-01T08:20:12;17.90;99.90
13684;DHT22;6914;53.552;9.908;2022-09-01T08:22:39;17.90;99.90
13684;DHT22;6914;53.552;9.908;2022-09-01T08:25:07;18.00;99.90
13684;DHT22;6914;53.552;9.908;2022-09-01T08:27:36;18.10;99.90
13684;DHT22;6914;53.552;9.908;2022-09-01T08:30:05;18.20;99.90
13684;DHT22;6914;53.552;9.908;2022-09-01T08:32:33;18.30;99.90
13684;DHT22;6914;53.552;9.908;2022-09-01T08:35:01;18.40;99.90
13684;DHT22;6914;53.552;9.908;2022-09-01T08:37:30;18.40;99.90
13684;DHT22;6914;53.552;9.908;2022-09-01T08:39:58;18.50;99.90
13684;DHT22;6914;53.552;9.908;2022-09-01T08:42:38;18.60;99.90
13684;DHT22;6914;53.552;9.908;2022-09-01T08:45:14;18.80;99.90
13684;DHT22;6914;53.552;9.908;2022-09-01T08:47:46;18.90;99.90
13684;DHT22;6914;53.552;9.908;2022-09-01T08:50:14;19.10;99.90
13684;DHT22;6914;53.552;9.908;2022-09-01T08:52:50;19.10;98.40
13684;DHT22;6914;53.552;9.908;2022-09-01T08:55:25;19.30;95.50
13684;DHT22;6914;53.552;9.908;2022-09-01T08:57:55;19.40;93.70
13684;DHT22;6914;53.552;9.908;2022-09-01T09:00:28;19.50;95.00
13684;DHT22;6914;53.552;9.908;2022-09-01T09:03:05;19.50;96.60
13684;DHT22;6914;53.552;9.908;2022-09-01T09:05:48;19.50;93.20
13684;DHT22;6914;53.552;9.908;2022-09-01T09:08:51;19.80;90.70
13684;DHT22;6914;53.552;9.908;2022-09-01T09:11:52;19.80;91.70
13684;DHT22;6914;53.552;9.908;2022-09-01T09:14:44;19.90;80.10
13684;DHT22;6914;53.552;9.908;2022-09-01T09:17:19;20.20;77.70
13684;DHT22;6914;53.552;9.908;2022-09-01T09:19:53;20.30;71.20
13684;DHT22;6914;53.552;9.908;2022-09-01T09:22:26;20.40;66.40
13684;DHT22;6914;53.552;9.908;2022-09-01T09:25:03;20.50;63.70
13684;DHT22;6914;53.552;9.908;2022-09-01T09:27:34;20.50;60.40
13684;DHT22;6914;53.552;9.908;2022-09-01T09:30:05;20.60;58.70
13684;DHT22;6914;53.552;9.908;2022-09-01T09:32:44;20.70;59.10
13684;DHT22;6914;53.552;9.908;2022-09-01T09:35:23;21.20;59.50
13684;DHT22;6914;53.552;9.908;2022-09-01T09:38:13;22.10;55.40
13684;DHT22;6914;53.552;9.908;2022-09-01T09:40:58;23.00;53.90
13684;DHT22;6914;53.552;9.908;2022-09-01T09:43:32;23.40;51.70
13684;DHT22;6914;53.552;9.908;2022-09-01T09:46:22;23.50;51.30
13684;DHT22;6914;53.552;9.908;2022-09-01T09:49:07;23.70;51.30
13684;DHT22;6914;53.552;9.908;2022-09-01T09:51:35;24.10;48.90
13684;DHT22;6914;53.552;9.908;2022-09-01T09:54:21;25.00;48.10
13684;DHT22;6914;53.552;9.908;2022-09-01T09:57:09;26.10;48.30
13684;DHT22;6914;53.552;9.908;2022-09-01T09:59:40;27.20;46.00
13684;DHT22;6914;53.552;9.908;2022-09-01T10:02:24;28.40;43.00
13684;DHT22;6914;53.552;9.908;2022-09-01T10:04:52;28.50;39.90
13684;DHT22;6914;53.552;9.908;2022-09-01T10:07:30;28.80;39.70
13684;DHT22;6914;53.552;9.908;2022-09-01T10:09:59;28.60;39.10
13684;DHT22;6914;53.552;9.908;2022-09-01T10:12:29;28.10;39.10
13684;DHT22;6914;53.552;9.908;2022-09-01T10:15:00;28.50;38.40
13684;DHT22;6914;53.552;9.908;2022-09-01T10:17:31;28.90;38.50
13684;DHT22;6914;53.552;9.908;2022-09-01T10:20:03;29.40;38.50
13684;DHT22;6914;53.552;9.908;2022-09-01T10:22:34;28.90;38.80
13684;DHT22;6914;53.552;9.908;2022-09-01T10:25:04;28.60;39.50
13684;DHT22;6914;53.552;9.908;2022-09-01T10:27:36;29.00;38.80
13684;DHT22;6914;53.552;9.908;2022-09-01T10:30:09;29.60;37.60
13684;DHT22;6914;53.552;9.908;2022-09-01T10:32:42;29.20;37.20
13684;DHT22;6914;53.552;9.908;2022-09-01T10:35:13;29.30;37.00
13684;DHT22;6914;53.552;9.908;2022-09-01T10:37:44;28.80;37.60
13684;DHT22;6914;53.552;9.908;2022-09-01T10:40:17;29.00;38.10
13684;DHT22;6914;53.552;9.908;2022-09-01T10:42:47;29.70;38.00
13684;DHT22;6914;53.552;9.908;2022-09-01T10:45:29;29.40;38.30
13684;DHT22;6914;53.552;9.908;2022-09-01T10:48:22;29.30;36.70
13684;DHT22;6914;53.552;9.908;2022-09-01T10:50:53;29.60;36.70
13684;DHT22;6914;53.552;9.908;2022-09-01T10:53:39;29.10;36.70
13684;DHT22;6914;53.552;9.908;2022-09-01T10:56:09;29.20;38.10
13684;DHT22;6914;53.552;9.908;2022-09-01T10:58:50;28.90;37.60
13684;DHT22;6914;53.552;9.908;2022-09-01T11:02:07;28.80;37.40
13684;DHT22;6914;53.552;9.908;2022-09-01T11:05:10;28.80;38.00
13684;DHT22;6914;53.552;9.908;2022-09-01T11:07:38;29.40;37.00
13684;DHT22;6914;53.552;9.908;2022-09-01T11:10:28;29.20;37.10
13684;DHT22;6914;53.552;9.908;2022-09-01T11:13:35;28.40;36.70
13684;DHT22;6914;53.552;9.908;2022-09-01T11:16:30;27.70;38.70
13684;DHT22;6914;53.552;9.908;2022-09-01T11:19:17;27.40;38.90
13684;DHT22;6914;53.552;9.908;2022-09-01T11:22:09;27.40;39.10
13684;DHT22;6914;53.552;9.908;2022-09-01T11:30:53;24.70;42.90
13684;DHT22;6914;53.552;9.908;2022-09-01T11:33:40;24.60;43.50
13684;DHT22;6914;53.552;9.908;2022-09-01T11:36:13;24.80;43.90
13684;DHT22;6914;53.552;9.908;2022-09-01T11:38:48;26.40;42.20
13684;DHT22;6914;53.552;9.908;2022-09-01T11:41:24;27.10;40.00
13684;DHT22;6914;53.552;9.908;2022-09-01T11:43:55;26.80;39.40
13684;DHT22;6914;53.552;9.908;2022-09-01T11:46:27;26.30;40.80
13684;DHT22;6914;53.552;9.908;2022-09-01T11:49:01;25.40;41.80
13684;DHT22;6914;53.552;9.908;2022-09-01T11:51:42;24.60;43.00
13684;DHT22;6914;53.552;9.908;2022-09-01T11:54:11;24.30;44.70
13684;DHT22;6914;53.552;9.908;2022-09-01T11:56:39;24.10;46.00
13684;DHT22;6914;53.552;9.908;2022-09-01T11:59:05;24.80;46.80
13684;DHT22;6914;53.552;9.908;2022-09-01T12:01:36;25.60;44.30
13684;DHT22;6914;53.552;9.908;2022-09-01T12:04:22;26.40;43.30
13684;DHT22;6914;53.552;9.908;2022-09-01T12:06:54;27.30;42.00
13684;DHT22;6914;53.552;9.908;2022-09-01T12:09:37;27.30;40.90
13684;DHT22;6914;53.552;9.908;2022-09-01T12:14:55;28.10;39.40
13684;DHT22;6914;53.552;9.908;2022-09-01T12:17:25;27.60;38.80
13684;DHT22;6914;53.552;9.908;2022-09-01T12:20:19;26.70;39.80
13684;DHT22;6914;53.552;9.908;2022-09-01T12:22:47;25.80;41.70
13684;DHT22;6914;53.552;9.908;2022-09-01T12:25:20;25.10;42.20
13684;DHT22;6914;53.552;9.908;2022-09-01T12:27:49;24.90;43.50
13684;DHT22;6914;53.552;9.908;2022-09-01T12:30:18;24.40;44.60
13684;DHT22;6914;53.552;9.908;2022-09-01T12:32:47;24.20;46.00
13684;DHT22;6914;53.552;9.908;2022-09-01T12:35:22;24.00;46.50
13684;DHT22;6914;53.552;9.908;2022-09-01T12:37:51;23.90;46.60
13684;DHT22;6914;53.552;9.908;2022-09-01T12:40:24;24.40;46.80
13684;DHT22;6914;53.552;9.908;2022-09-01T12:42:53;25.40;45.30
13684;DHT22;6914;53.552;9.908;2022-09-01T12:45:38;25.30;44.90
13684;DHT22;6914;53.552;9.908;2022-09-01T12:48:06;26.20;43.20
13684;DHT22;6914;53.552;9.908;2022-09-01T12:50:44;26.60;41.80
13684;DHT22;6914;53.552;9.908;2022-09-01T12:53:18;27.20;42.40
13684;DHT22;6914;53.552;9.908;2022-09-01T12:56:05;27.70;41.20
13684;DHT22;6914;53.552;9.908;2022-09-01T12:58:33;28.00;40.20
13684;DHT22;6914;53.552;9.908;2022-09-01T13:01:04;27.20;39.80
13684;DHT22;6914;53.552;9.908;2022-09-01T13:03:35;26.40;41.90
13684;DHT22;6914;53.552;9.908;2022-09-01T13:06:04;28.40;45.10
13684;DHT22;6914;53.552;9.908;2022-09-01T13:08:33;26.80;41.30
13684;DHT22;6914;53.552;9.908;2022-09-01T13:11:04;26.80;41.20
13684;DHT22;6914;53.552;9.908;2022-09-01T13:13:32;26.60;41.50
13684;DHT22;6914;53.552;9.908;2022-09-01T13:16:00;26.80;40.90
13684;DHT22;6914;53.552;9.908;2022-09-01T13:18:29;26.20;40.10
13684;DHT22;6914;53.552;9.908;2022-09-01T13:20:56;26.50;40.80
13684;DHT22;6914;53.552;9.908;2022-09-01T13:23:25;26.30;40.60
13684;DHT22;6914;53.552;9.908;2022-09-01T13:25:52;26.50;40.40
13684;DHT22;6914;53.552;9.908;2022-09-01T13:28:20;26.50;41.10
13684;DHT22;6914;53.552;9.908;2022-09-01T13:30:53;26.40;42.70
13684;DHT22;6914;53.552;9.908;2022-09-01T13:33:20;26.40;41.40
13684;DHT22;6914;53.552;9.908;2022-09-01T13:35:48;26.40;40.60
13684;DHT22;6914;53.552;9.908;2022-09-01T13:38:18;26.30;39.80
13684;DHT22;6914;53.552;9.908;2022-09-01T13:40:49;25.40;40.50
13684;DHT22;6914;53.552;9.908;2022-09-01T13:43:19;25.40;42.30
13684;DHT22;6914;53.552;9.908;2022-09-01T13:45:47;25.20;43.10
13684;DHT22;6914;53.552;9.908;2022-09-01T13:48:15;24.90;43.70
13684;DHT22;6914;53.552;9.908;2022-09-01T13:50:47;24.60;44.20
13684;DHT22;6914;53.552;9.908;2022-09-01T13:53:16;24.30;44.50
13684;DHT22;6914;53.552;9.908;2022-09-01T13:55:43;24.00;44.90
13684;DHT22;6914;53.552;9.908;2022-09-01T13:58:12;24.00;46.00
13684;DHT22;6914;53.552;9.908;2022-09-01T14:00:41;24.00;45.90
13684;DHT22;6914;53.552;9.908;2022-09-01T14:03:10;24.00;46.10
13684;DHT22;6914;53.552;9.908;2022-09-01T14:05:40;24.00;46.70
13684;DHT22;6914;53.552;9.908;2022-09-01T14:08:09;24.20;46.60
13684;DHT22;6914;53.552;9.908;2022-09-01T14:10:38;24.30;46.60
13684;DHT22;6914;53.552;9.908;2022-09-01T14:13:06;24.30;46.90
13684;DHT22;6914;53.552;9.908;2022-09-01T14:15:35;24.00;46.60
13684;DHT22;6914;53.552;9.908;2022-09-01T14:18:04;23.80;47.20
13684;DHT22;6914;53.552;9.908;2022-09-01T14:20:33;23.60;47.00
13684;DHT22;6914;53.552;9.908;2022-09-01T14:23:02;23.30;47.90
13684;DHT22;6914;53.552;9.908;2022-09-01T14:25:30;23.20;47.60
13684;DHT22;6914;53.552;9.908;2022-09-01T14:27:58;23.10;47.50
13684;DHT22;6914;53.552;9.908;2022-09-01T14:30:26;23.00;47.70
13684;DHT22;6914;53.552;9.908;2022-09-01T14:32:55;23.00;47.90
13684;DHT22;6914;53.552;9.908;2022-09-01T14:35:24;23.10;48.10
13684;DHT22;6914;53.552;9.908;2022-09-01T14:37:52;23.10;48.00
13684;DHT22;6914;53.552;9.908;2022-09-01T14:40:21;23.10;47.90
13684;DHT22;6914;53.552;9.908;2022-09-01T14:42:51;23.00;48.80
13684;DHT22;6914;53.552;9.908;2022-09-01T14:45:20;23.70;50.70
13684;DHT22;6914;53.552;9.908;2022-09-01T14:47:49;23.20;47.70
13684;DHT22;6914;53.552;9.908;2022-09-01T14:50:33;22.90;47.30
13684;DHT22;6914;53.552;9.908;2022-09-01T14:53:04;20.90;46.70
13684;DHT22;6914;53.552;9.908;2022-09-01T14:55:35;23.70;49.60
13684;DHT22;6914;53.552;9.908;2022-09-01T14:58:05;22.70;48.10
13684;DHT22;6914;53.552;9.908;2022-09-01T15:00:33;22.70;47.90
13684;DHT22;6914;53.552;9.908;2022-09-01T15:03:03;22.60;48.00
13684;DHT22;6914;53.552;9.908;2022-09-01T15:05:34;22.50;47.90
13684;DHT22;6914;53.552;9.908;2022-09-01T15:08:01;22.40;47.90
13684;DHT22;6914;53.552;9.908;2022-09-01T15:10:28;22.60;48.20
13684;DHT22;6914;53.552;9.908;2022-09-01T15:12:59;22.70;47.90
13684;DHT22;6914;53.552;9.908;2022-09-01T15:15:31;22.60;48.00
13684;DHT22;6914;53.552;9.908;2022-09-01T15:17:59;22.60;47.60
13684;DHT22;6914;53.552;9.908;2022-09-01T15:20:28;22.70;47.90
13684;DHT22;6914;53.552;9.908;2022-09-01T15:23:15;22.90;48.20
13684;DHT22;6914;53.552;9.908;2022-09-01T15:25:45;23.10;48.00
13684;DHT22;6914;53.552;9.908;2022-09-01T15:28:13;23.20;47.20
13684;DHT22;6914;53.552;9.908;2022-09-01T15:30:41;23.30;47.20
13684;DHT22;6914;53.552;9.908;2022-09-01T15:33:09;23.30;47.30
13684;DHT22;6914;53.552;9.908;2022-09-01T15:35:36;23.30;47.60
13684;DHT22;6914;53.552;9.908;2022-09-01T15:38:15;23.30;47.90
13684;DHT22;6914;53.552;9.908;2022-09-01T15:40:43;23.10;48.60
13684;DHT22;6914;53.552;9.908;2022-09-01T15:43:10;22.90;50.00
13684;DHT22;6914;53.552;9.908;2022-09-01T15:45:38;22.80;49.90
13684;DHT22;6914;53.552;9.908;2022-09-01T15:48:06;22.70;50.00
13684;DHT22;6914;53.552;9.908;2022-09-01T15:50:36;22.40;50.50
13684;DHT22;6914;53.552;9.908;2022-09-01T15:53:04;22.20;50.80
13684;DHT22;6914;53.552;9.908;2022-09-01T15:55:43;22.00;50.90
13684;DHT22;6914;53.552;9.908;2022-09-01T15:58:13;21.70;51.30
13684;DHT22;6914;53.552;9.908;2022-09-01T16:00:41;21.70;51.50
13684;DHT22;6914;53.552;9.908;2022-09-01T16:03:10;21.50;51.90
13684;DHT22;6914;53.552;9.908;2022-09-01T16:05:41;21.40;52.30
13684;DHT22;6914;53.552;9.908;2022-09-01T16:08:15;21.30;52.60
13684;DHT22;6914;53.552;9.908;2022-09-01T16:10:45;21.30;52.80
13684;DHT22;6914;53.552;9.908;2022-09-01T16:13:15;21.20;53.30
13684;DHT22;6914;53.552;9.908;2022-09-01T16:15:48;21.20;54.10
13684;DHT22;6914;53.552;9.908;2022-09-01T16:18:29;21.20;54.00
13684;DHT22;6914;53.552;9.908;2022-09-01T16:21:05;21.30;53.90
13684;DHT22;6914;53.552;9.908;2022-09-01T16:23:41;21.40;53.50
13684;DHT22;6914;53.552;9.908;2022-09-01T16:26:10;21.40;53.30
13684;DHT22;6914;53.552;9.908;2022-09-01T16:28:38;21.50;53.20
13684;DHT22;6914;53.552;9.908;2022-09-01T16:31:11;21.60;53.30
13684;DHT22;6914;53.552;9.908;2022-09-01T16:33:42;21.60;53.30
13684;DHT22;6914;53.552;9.908;2022-09-01T16:36:23;21.60;53.30
13684;DHT22;6914;53.552;9.908;2022-09-01T16:39:00;21.40;53.50
13684;DHT22;6914;53.552;9.908;2022-09-01T16:41:37;21.40;53.60
13684;DHT22;6914;53.552;9.908;2022-09-01T16:44:14;21.30;53.50
13684;DHT22;6914;53.552;9.908;2022-09-01T16:46:49;21.30;53.80
13684;DHT22;6914;53.552;9.908;2022-09-01T16:49:23;21.10;54.10
13684;DHT22;6914;53.552;9.908;2022-09-01T16:52:00;21.10;54.20
13684;DHT22;6914;53.552;9.908;2022-09-01T16:54:41;21.10;54.20
13684;DHT22;6914;53.552;9.908;2022-09-01T16:57:20;21.00;54.10
13684;DHT22;6914;53.552;9.908;2022-09-01T16:59:52;21.00;54.20
13684;DHT22;6914;53.552;9.908;2022-09-01T17:02:32;20.90;54.10
13684;DHT22;6914;53.552;9.908;2022-09-01T17:05:09;20.90;54.50
13684;DHT22;6914;53.552;9.908;2022-09-01T17:07:49;20.90;54.60
13684;DHT22;6914;53.552;9.908;2022-09-01T17:10:25;20.80;54.50
13684;DHT22;6914;53.552;9.908;2022-09-01T17:13:08;20.60;54.10
13684;DHT22;6914;53.552;9.908;2022-09-01T17:15:47;20.70;55.40
13684;DHT22;6914;53.552;9.908;2022-09-01T17:18:27;20.60;54.70
13684;DHT22;6914;53.552;9.908;2022-09-01T17:21:01;22.50;57.20
13684;DHT22;6914;53.552;9.908;2022-09-01T17:23:38;20.60;54.70
13684;DHT22;6914;53.552;9.908;2022-09-01T17:26:17;20.50;54.90
13684;DHT22;6914;53.552;9.908;2022-09-01T17:28:53;20.40;54.90
13684;DHT22;6914;53.552;9.908;2022-09-01T17:31:37;20.30;55.00
13684;DHT22;6914;53.552;9.908;2022-09-01T17:34:27;20.20;55.10
13684;DHT22;6914;53.552;9.908;2022-09-01T17:37:15;20.10;55.30
13684;DHT22;6914;53.552;9.908;2022-09-01T17:39:57;20.00;56.00
13684;DHT22;6914;53.552;9.908;2022-09-01T17:42:36;20.00;56.60
13684;DHT22;6914;53.552;9.908;2022-09-01T17:45:13;19.90;56.70
13684;DHT22;6914;53.552;9.908;2022-09-01T17:47:54;19.90;57.80
13684;DHT22;6914;53.552;9.908;2022-09-01T17:50:31;19.80;58.40
13684;DHT22;6914;53.552;9.908;2022-09-01T17:53:05;19.70;58.50
13684;DHT22;6914;53.552;9.908;2022-09-01T17:55:47;19.60;59.60
13684;DHT22;6914;53.552;9.908;2022-09-01T17:58:28;19.50;60.60
13684;DHT22;6914;53.552;9.908;2022-09-01T18:01:05;19.50;61.40
13684;DHT22;6914;53.552;9.908;2022-09-01T18:03:58;19.40;62.20
13684;DHT22;6914;53.552;9.908;2022-09-01T18:06:36;19.30;63.50